sensor_id;sensor_type;location;lat;lon;timestamp;P1;durP1;ratioP1;P2;durP2;ratioP2
62941;SDS011;49042;47.318;19.874;2023-04-21T00:00:07;13.68;;;5.37;;
62941;SDS011;49042;47.318;19.874;2023-04-21T00:03:10;16.45;;;5.85;;
62941;SDS011;49042;47.318;19.874;2023-04-21T00:06:12;11.95;;;5.32;;
62941;SDS011;49042;47.318;19.874;2023-04-21T00:09:15;10.02;;;5.20;;
62941;SDS011;49042;47.318;19.874;2023-04-21T00:12:19;13.85;;;5.62;;
62941;SDS011;49042;47.318;19.874;2023-04-21T00:15:21;6.68;;;4.82;;
62941;SDS011;49042;47.318;19.874;2023-04-21T00:18:22;16.45;;;5.37;;
62941;SDS011;49042;47.318;19.874;2023-04-21T00:21:25;11.00;;;5.75;;
62941;SDS011;49042;47.318;19.874;2023-04-21T00:24:27;14.05;;;6.40;;
62941;SDS011;49042;47.318;19.874;2023-04-21T00:27:28;15.32;;;6.70;;
62941;SDS011;49042;47.318;19.874;2023-04-21T00:30:30;18.33;;;6.43;;
62941;SDS011;49042;47.318;19.874;2023-04-21T00:33:32;9.93;;;5.78;;
62941;SDS011;49042;47.318;19.874;2023-04-21T00:36:33;13.88;;;5.40;;
62941;SDS011;49042;47.318;19.874;2023-04-21T00:39:35;11.73;;;5.90;;
62941;SDS011;49042;47.318;19.874;2023-04-21T00:42:37;9.02;;;5.55;;
62941;SDS011;49042;47.318;19.874;2023-04-21T00:45:38;10.60;;;5.68;;
62941;SDS011;49042;47.318;19.874;2023-04-21T00:48:40;15.88;;;5.53;;
62941;SDS011;49042;47.318;19.874;2023-04-21T00:51:42;12.40;;;5.60;;
62941;SDS011;49042;47.318;19.874;2023-04-21T00:54:43;11.27;;;5.62;;
62941;SDS011;49042;47.318;19.874;2023-04-21T00:57:46;11.10;;;5.97;;
62941;SDS011;49042;47.318;19.874;2023-04-21T01:00:49;12.35;;;5.95;;
62941;SDS011;49042;47.318;19.874;2023-04-21T01:03:51;9.68;;;5.53;;
62941;SDS011;49042;47.318;19.874;2023-04-21T01:06:53;9.85;;;5.72;;
62941;SDS011;49042;47.318;19.874;2023-04-21T01:09:55;13.23;;;5.43;;
62941;SDS011;49042;47.318;19.874;2023-04-21T01:12:56;13.50;;;5.95;;
62941;SDS011;49042;47.318;19.874;2023-04-21T01:15:58;12.80;;;5.10;;
62941;SDS011;49042;47.318;19.874;2023-04-21T01:19:00;14.68;;;5.85;;
62941;SDS011;49042;47.318;19.874;2023-04-21T01:22:02;12.63;;;5.18;;
62941;SDS011;49042;47.318;19.874;2023-04-21T01:25:04;10.27;;;5.82;;
62941;SDS011;49042;47.318;19.874;2023-04-21T01:28:06;12.45;;;5.10;;
62941;SDS011;49042;47.318;19.874;2023-04-21T01:31:08;14.48;;;5.80;;
62941;SDS011;49042;47.318;19.874;2023-04-21T01:34:09;13.62;;;7.05;;
62941;SDS011;49042;47.318;19.874;2023-04-21T01:37:12;16.20;;;7.20;;
62941;SDS011;49042;47.318;19.874;2023-04-21T01:40:16;13.82;;;7.22;;
62941;SDS011;49042;47.318;19.874;2023-04-21T01:43:19;15.57;;;6.35;;
62941;SDS011;49042;47.318;19.874;2023-04-21T01:46:23;13.50;;;5.93;;
62941;SDS011;49042;47.318;19.874;2023-04-21T01:49:25;10.65;;;5.95;;
62941;SDS011;49042;47.318;19.874;2023-04-21T01:52:27;10.25;;;5.82;;
62941;SDS011;49042;47.318;19.874;2023-04-21T01:55:29;14.10;;;5.62;;
62941;SDS011;49042;47.318;19.874;2023-04-21T01:58:30;15.65;;;5.28;;
62941;SDS011;49042;47.318;19.874;2023-04-21T02:01:32;10.13;;;4.93;;
62941;SDS011;49042;47.318;19.874;2023-04-21T02:04:36;17.70;;;5.22;;
62941;SDS011;49042;47.318;19.874;2023-04-21T02:07:38;12.55;;;5.10;;
62941;SDS011;49042;47.318;19.874;2023-04-21T02:10:40;10.30;;;5.47;;
62941;SDS011;49042;47.318;19.874;2023-04-21T02:13:41;16.08;;;7.65;;
62941;SDS011;49042;47.318;19.874;2023-04-21T02:16:43;24.48;;;7.37;;
62941;SDS011;49042;47.318;19.874;2023-04-21T02:19:45;13.68;;;7.87;;
62941;SDS011;49042;47.318;19.874;2023-04-21T02:22:48;20.50;;;7.70;;
62941;SDS011;49042;47.318;19.874;2023-04-21T02:25:49;17.17;;;7.50;;
62941;SDS011;49042;47.318;19.874;2023-04-21T02:28:51;13.95;;;5.43;;
62941;SDS011;49042;47.318;19.874;2023-04-21T02:31:53;10.13;;;5.22;;
62941;SDS011;49042;47.318;19.874;2023-04-21T02:35:03;13.57;;;5.28;;
62941;SDS011;49042;47.318;19.874;2023-04-21T02:38:05;16.70;;;6.18;;
62941;SDS011;49042;47.318;19.874;2023-04-21T02:41:09;17.48;;;6.45;;
62941;SDS011;49042;47.318;19.874;2023-04-21T02:44:11;20.40;;;6.78;;
62941;SDS011;49042;47.318;19.874;2023-04-21T02:47:16;15.30;;;5.30;;
62941;SDS011;49042;47.318;19.874;2023-04-21T02:50:17;17.83;;;4.70;;
62941;SDS011;49042;47.318;19.874;2023-04-21T02:53:19;8.40;;;4.30;;
62941;SDS011;49042;47.318;19.874;2023-04-21T02:56:21;12.93;;;5.53;;
62941;SDS011;49042;47.318;19.874;2023-04-21T02:59:22;18.73;;;6.43;;
62941;SDS011;49042;47.318;19.874;2023-04-21T03:02:24;17.33;;;5.80;;
62941;SDS011;49042;47.318;19.874;2023-04-21T03:05:26;12.15;;;5.15;;
62941;SDS011;49042;47.318;19.874;2023-04-21T03:08:28;13.93;;;5.85;;
62941;SDS011;49042;47.318;19.874;2023-04-21T03:11:31;22.77;;;10.30;;
62941;SDS011;49042;47.318;19.874;2023-04-21T03:14:33;25.02;;;10.50;;
62941;SDS011;49042;47.318;19.874;2023-04-21T03:17:34;24.80;;;8.90;;
62941;SDS011;49042;47.318;19.874;2023-04-21T03:20:36;20.33;;;6.55;;
62941;SDS011;49042;47.318;19.874;2023-04-21T03:23:38;16.00;;;6.50;;
62941;SDS011;49042;47.318;19.874;2023-04-21T03:26:39;21.10;;;6.12;;
62941;SDS011;49042;47.318;19.874;2023-04-21T03:29:41;14.65;;;6.82;;
62941;SDS011;49042;47.318;19.874;2023-04-21T03:32:43;20.25;;;8.50;;
62941;SDS011;49042;47.318;19.874;2023-04-21T03:35:45;19.15;;;8.68;;
62941;SDS011;49042;47.318;19.874;2023-04-21T03:38:46;17.92;;;7.53;;
62941;SDS011;49042;47.318;19.874;2023-04-21T03:41:48;17.95;;;6.68;;
62941;SDS011;49042;47.318;19.874;2023-04-21T03:44:50;15.77;;;7.03;;
62941;SDS011;49042;47.318;19.874;2023-04-21T03:47:52;21.65;;;8.10;;
62941;SDS011;49042;47.318;19.874;2023-04-21T03:50:55;19.70;;;6.75;;
62941;SDS011;49042;47.318;19.874;2023-04-21T03:53:56;16.23;;;6.22;;
62941;SDS011;49042;47.318;19.874;2023-04-21T03:56:58;19.92;;;7.07;;
62941;SDS011;49042;47.318;19.874;2023-04-21T04:00:00;14.27;;;4.95;;
62941;SDS011;49042;47.318;19.874;2023-04-21T04:03:02;18.87;;;4.30;;
62941;SDS011;49042;47.318;19.874;2023-04-21T04:06:04;13.13;;;4.32;;
62941;SDS011;49042;47.318;19.874;2023-04-21T04:09:06;16.67;;;4.40;;
62941;SDS011;49042;47.318;19.874;2023-04-21T04:12:09;10.80;;;4.18;;
62941;SDS011;49042;47.318;19.874;2023-04-21T04:15:12;13.13;;;4.37;;
62941;SDS011;49042;47.318;19.874;2023-04-21T04:18:13;13.85;;;4.53;;
62941;SDS011;49042;47.318;19.874;2023-04-21T04:21:15;11.10;;;4.03;;
62941;SDS011;49042;47.318;19.874;2023-04-21T04:24:17;18.15;;;5.40;;
62941;SDS011;49042;47.318;19.874;2023-04-21T04:27:19;25.10;;;5.80;;
62941;SDS011;49042;47.318;19.874;2023-04-21T04:30:21;20.80;;;6.20;;
62941;SDS011;49042;47.318;19.874;2023-04-21T04:33:24;11.27;;;4.90;;
62941;SDS011;49042;47.318;19.874;2023-04-21T04:36:25;18.08;;;4.82;;
62941;SDS011;49042;47.318;19.874;2023-04-21T04:39:29;13.02;;;4.65;;
62941;SDS011;49042;47.318;19.874;2023-04-21T04:42:32;20.12;;;4.40;;
62941;SDS011;49042;47.318;19.874;2023-04-21T04:45:35;11.75;;;5.25;;
62941;SDS011;49042;47.318;19.874;2023-04-21T04:48:38;7.65;;;3.83;;
62941;SDS011;49042;47.318;19.874;2023-04-21T04:51:39;13.32;;;4.35;;
62941;SDS011;49042;47.318;19.874;2023-04-21T04:54:41;19.30;;;4.37;;
62941;SDS011;49042;47.318;19.874;2023-04-21T04:57:43;20.92;;;4.40;;
62941;SDS011;49042;47.318;19.874;2023-04-21T05:00:44;11.20;;;4.95;;
62941;SDS011;49042;47.318;19.874;2023-04-21T05:03:47;12.35;;;5.90;;
62941;SDS011;49042;47.318;19.874;2023-04-21T05:06:48;24.73;;;7.93;;
62941;SDS011;49042;47.318;19.874;2023-04-21T05:09:50;24.40;;;6.65;;
62941;SDS011;49042;47.318;19.874;2023-04-21T05:12:52;14.48;;;4.37;;
62941;SDS011;49042;47.318;19.874;2023-04-21T05:15:57;17.60;;;3.95;;
62941;SDS011;49042;47.318;19.874;2023-04-21T05:19:02;9.77;;;3.15;;
62941;SDS011;49042;47.318;19.874;2023-04-21T05:22:04;12.00;;;3.60;;
62941;SDS011;49042;47.318;19.874;2023-04-21T05:25:09;15.25;;;3.55;;
62941;SDS011;49042;47.318;19.874;2023-04-21T05:28:15;12.32;;;4.32;;
62941;SDS011;49042;47.318;19.874;2023-04-21T05:31:16;15.02;;;4.12;;
62941;SDS011;49042;47.318;19.874;2023-04-21T05:34:18;13.23;;;4.25;;
62941;SDS011;49042;47.318;19.874;2023-04-21T05:37:20;13.00;;;4.43;;
62941;SDS011;49042;47.318;19.874;2023-04-21T05:40:22;13.85;;;4.30;;
62941;SDS011;49042;47.318;19.874;2023-04-21T05:43:23;16.35;;;4.20;;
62941;SDS011;49042;47.318;19.874;2023-04-21T05:46:25;17.92;;;5.60;;
62941;SDS011;49042;47.318;19.874;2023-04-21T05:49:27;24.55;;;5.45;;
62941;SDS011;49042;47.318;19.874;2023-04-21T05:52:28;25.42;;;5.82;;
62941;SDS011;49042;47.318;19.874;2023-04-21T05:55:30;14.25;;;4.62;;
62941;SDS011;49042;47.318;19.874;2023-04-21T05:58:34;11.48;;;4.53;;
62941;SDS011;49042;47.318;19.874;2023-04-21T06:01:36;14.32;;;4.20;;
62941;SDS011;49042;47.318;19.874;2023-04-21T06:04:38;14.32;;;4.15;;
62941;SDS011;49042;47.318;19.874;2023-04-21T06:07:40;17.10;;;3.72;;
62941;SDS011;49042;47.318;19.874;2023-04-21T06:10:41;7.25;;;2.80;;
62941;SDS011;49042;47.318;19.874;2023-04-21T06:13:43;11.52;;;3.28;;
62941;SDS011;49042;47.318;19.874;2023-04-21T06:16:45;11.93;;;2.85;;
62941;SDS011;49042;47.318;19.874;2023-04-21T06:19:47;13.00;;;3.42;;
62941;SDS011;49042;47.318;19.874;2023-04-21T06:22:53;18.55;;;3.40;;
62941;SDS011;49042;47.318;19.874;2023-04-21T06:26:01;8.32;;;2.65;;
62941;SDS011;49042;47.318;19.874;2023-04-21T06:29:05;21.50;;;3.58;;
62941;SDS011;49042;47.318;19.874;2023-04-21T06:32:07;19.08;;;3.28;;
62941;SDS011;49042;47.318;19.874;2023-04-21T06:35:10;20.40;;;2.83;;
62941;SDS011;49042;47.318;19.874;2023-04-21T06:38:11;12.73;;;3.03;;
62941;SDS011;49042;47.318;19.874;2023-04-21T06:41:13;14.27;;;2.87;;
62941;SDS011;49042;47.318;19.874;2023-04-21T06:44:15;16.40;;;2.85;;
62941;SDS011;49042;47.318;19.874;2023-04-21T06:47:17;26.12;;;3.10;;
62941;SDS011;49042;47.318;19.874;2023-04-21T06:50:19;14.43;;;3.03;;
62941;SDS011;49042;47.318;19.874;2023-04-21T06:53:21;67.85;;;17.73;;
62941;SDS011;49042;47.318;19.874;2023-04-21T06:56:23;18.73;;;6.05;;
62941;SDS011;49042;47.318;19.874;2023-04-21T06:59:24;20.83;;;7.30;;
62941;SDS011;49042;47.318;19.874;2023-04-21T07:02:26;14.35;;;4.60;;
62941;SDS011;49042;47.318;19.874;2023-04-21T07:05:28;36.65;;;9.50;;
62941;SDS011;49042;47.318;19.874;2023-04-21T07:08:29;14.82;;;4.15;;
62941;SDS011;49042;47.318;19.874;2023-04-21T07:11:31;24.25;;;3.20;;
62941;SDS011;49042;47.318;19.874;2023-04-21T07:14:33;16.75;;;3.15;;
62941;SDS011;49042;47.318;19.874;2023-04-21T07:17:34;19.98;;;3.80;;
62941;SDS011;49042;47.318;19.874;2023-04-21T07:20:36;20.35;;;3.25;;
62941;SDS011;49042;47.318;19.874;2023-04-21T07:23:38;17.00;;;3.00;;
62941;SDS011;49042;47.318;19.874;2023-04-21T07:26:39;10.90;;;2.85;;
62941;SDS011;49042;47.318;19.874;2023-04-21T07:29:41;16.42;;;3.35;;
62941;SDS011;49042;47.318;19.874;2023-04-21T07:32:43;17.10;;;3.37;;
62941;SDS011;49042;47.318;19.874;2023-04-21T07:35:44;21.12;;;3.40;;
62941;SDS011;49042;47.318;19.874;2023-04-21T07:38:46;18.87;;;2.87;;
62941;SDS011;49042;47.318;19.874;2023-04-21T07:41:48;18.73;;;3.50;;
62941;SDS011;49042;47.318;19.874;2023-04-21T07:44:50;14.57;;;3.22;;
62941;SDS011;49042;47.318;19.874;2023-04-21T07:47:53;18.23;;;2.95;;
62941;SDS011;49042;47.318;19.874;2023-04-21T07:50:54;13.93;;;3.00;;
62941;SDS011;49042;47.318;19.874;2023-04-21T07:53:58;14.90;;;3.17;;
62941;SDS011;49042;47.318;19.874;2023-04-21T07:57:00;15.98;;;2.72;;
62941;SDS011;49042;47.318;19.874;2023-04-21T08:00:05;21.87;;;3.28;;
62941;SDS011;49042;47.318;19.874;2023-04-21T08:03:08;17.05;;;2.95;;
62941;SDS011;49042;47.318;19.874;2023-04-21T08:06:09;21.25;;;3.12;;
62941;SDS011;49042;47.318;19.874;2023-04-21T08:09:11;14.20;;;2.72;;
62941;SDS011;49042;47.318;19.874;2023-04-21T08:12:13;21.48;;;3.42;;
62941;SDS011;49042;47.318;19.874;2023-04-21T08:15:15;17.92;;;2.75;;
62941;SDS011;49042;47.318;19.874;2023-04-21T08:18:17;30.33;;;3.08;;
62941;SDS011;49042;47.318;19.874;2023-04-21T08:21:22;19.92;;;3.33;;
62941;SDS011;49042;47.318;19.874;2023-04-21T08:24:24;15.98;;;4.05;;
62941;SDS011;49042;47.318;19.874;2023-04-21T08:27:26;13.68;;;3.05;;
62941;SDS011;49042;47.318;19.874;2023-04-21T08:30:28;17.25;;;3.37;;
62941;SDS011;49042;47.318;19.874;2023-04-21T08:33:29;13.50;;;3.22;;
62941;SDS011;49042;47.318;19.874;2023-04-21T08:36:31;16.23;;;3.00;;
62941;SDS011;49042;47.318;19.874;2023-04-21T08:39:33;14.85;;;2.75;;
62941;SDS011;49042;47.318;19.874;2023-04-21T08:42:35;18.55;;;3.25;;
62941;SDS011;49042;47.318;19.874;2023-04-21T08:45:38;30.40;;;4.35;;
62941;SDS011;49042;47.318;19.874;2023-04-21T08:48:43;12.88;;;3.30;;
62941;SDS011;49042;47.318;19.874;2023-04-21T08:51:47;10.32;;;2.75;;
62941;SDS011;49042;47.318;19.874;2023-04-21T08:54:48;14.43;;;3.45;;
62941;SDS011;49042;47.318;19.874;2023-04-21T08:57:53;23.50;;;3.65;;
62941;SDS011;49042;47.318;19.874;2023-04-21T09:00:54;9.50;;;3.10;;
62941;SDS011;49042;47.318;19.874;2023-04-21T09:04:15;12.18;;;3.53;;
62941;SDS011;49042;47.318;19.874;2023-04-21T09:07:34;12.32;;;3.40;;
62941;SDS011;49042;47.318;19.874;2023-04-21T09:10:47;17.48;;;3.30;;
62941;SDS011;49042;47.318;19.874;2023-04-21T09:13:50;10.73;;;3.03;;
62941;SDS011;49042;47.318;19.874;2023-04-21T09:16:58;9.40;;;2.92;;
62941;SDS011;49042;47.318;19.874;2023-04-21T09:20:11;11.00;;;2.72;;
62941;SDS011;49042;47.318;19.874;2023-04-21T09:23:16;10.73;;;3.50;;
62941;SDS011;49042;47.318;19.874;2023-04-21T09:26:19;10.70;;;3.00;;
62941;SDS011;49042;47.318;19.874;2023-04-21T09:29:23;6.15;;;2.90;;
62941;SDS011;49042;47.318;19.874;2023-04-21T09:32:25;23.08;;;4.28;;
62941;SDS011;49042;47.318;19.874;2023-04-21T09:35:28;9.75;;;3.65;;
62941;SDS011;49042;47.318;19.874;2023-04-21T09:38:30;7.97;;;2.87;;
62941;SDS011;49042;47.318;19.874;2023-04-21T09:41:33;6.82;;;3.05;;
62941;SDS011;49042;47.318;19.874;2023-04-21T09:44:34;11.38;;;3.67;;
62941;SDS011;49042;47.318;19.874;2023-04-21T09:47:54;8.63;;;3.15;;
62941;SDS011;49042;47.318;19.874;2023-04-21T09:51:01;8.57;;;3.47;;
62941;SDS011;49042;47.318;19.874;2023-04-21T09:54:25;12.37;;;3.45;;
62941;SDS011;49042;47.318;19.874;2023-04-21T09:57:31;6.03;;;3.20;;
62941;SDS011;49042;47.318;19.874;2023-04-21T10:00:33;22.17;;;4.50;;
62941;SDS011;49042;47.318;19.874;2023-04-21T10:03:40;12.32;;;3.80;;
62941;SDS011;49042;47.318;19.874;2023-04-21T10:06:44;10.95;;;3.08;;
62941;SDS011;49042;47.318;19.874;2023-04-21T10:09:49;8.23;;;3.42;;
62941;SDS011;49042;47.318;19.874;2023-04-21T10:16:03;9.32;;;3.60;;
62941;SDS011;49042;47.318;19.874;2023-04-21T10:19:25;9.65;;;3.55;;
62941;SDS011;49042;47.318;19.874;2023-04-21T10:22:28;7.75;;;3.62;;
62941;SDS011;49042;47.318;19.874;2023-04-21T10:25:31;11.88;;;4.47;;
62941;SDS011;49042;47.318;19.874;2023-04-21T10:31:57;10.25;;;3.90;;
62941;SDS011;49042;47.318;19.874;2023-04-21T10:34:59;12.23;;;3.90;;
62941;SDS011;49042;47.318;19.874;2023-04-21T10:38:00;12.65;;;4.05;;
62941;SDS011;49042;47.318;19.874;2023-04-21T10:44:30;16.62;;;4.18;;
62941;SDS011;49042;47.318;19.874;2023-04-21T10:47:41;17.42;;;4.20;;
62941;SDS011;49042;47.318;19.874;2023-04-21T10:50:46;7.15;;;4.28;;
62941;SDS011;49042;47.318;19.874;2023-04-21T10:53:49;13.73;;;3.58;;
62941;SDS011;49042;47.318;19.874;2023-04-21T10:56:51;9.88;;;3.67;;
62941;SDS011;49042;47.318;19.874;2023-04-21T10:59:54;9.63;;;3.95;;
62941;SDS011;49042;47.318;19.874;2023-04-21T11:03:00;6.55;;;3.87;;
62941;SDS011;49042;47.318;19.874;2023-04-21T11:06:12;21.87;;;4.95;;
62941;SDS011;49042;47.318;19.874;2023-04-21T11:09:16;11.93;;;4.20;;
62941;SDS011;49042;47.318;19.874;2023-04-21T11:12:17;8.85;;;3.97;;
62941;SDS011;49042;47.318;19.874;2023-04-21T11:15:20;9.48;;;4.18;;
62941;SDS011;49042;47.318;19.874;2023-04-21T11:18:30;11.30;;;4.05;;
62941;SDS011;49042;47.318;19.874;2023-04-21T11:21:33;7.78;;;3.97;;
62941;SDS011;49042;47.318;19.874;2023-04-21T11:24:35;8.30;;;4.30;;
62941;SDS011;49042;47.318;19.874;2023-04-21T11:27:37;10.60;;;3.75;;
62941;SDS011;49042;47.318;19.874;2023-04-21T11:30:38;12.80;;;3.92;;
62941;SDS011;49042;47.318;19.874;2023-04-21T11:33:40;14.52;;;4.25;;
62941;SDS011;49042;47.318;19.874;2023-04-21T11:36:42;8.27;;;4.20;;
62941;SDS011;49042;47.318;19.874;2023-04-21T11:39:45;11.93;;;4.12;;
62941;SDS011;49042;47.318;19.874;2023-04-21T11:42:46;7.40;;;4.07;;
62941;SDS011;49042;47.318;19.874;2023-04-21T11:45:48;9.15;;;3.92;;
62941;SDS011;49042;47.318;19.874;2023-04-21T11:52:02;9.68;;;3.80;;
62941;SDS011;49042;47.318;19.874;2023-04-21T11:58:07;5.32;;;3.45;;
62941;SDS011;49042;47.318;19.874;2023-04-21T12:01:10;11.70;;;4.25;;
62941;SDS011;49042;47.318;19.874;2023-04-21T12:04:21;11.27;;;3.80;;
62941;SDS011;49042;47.318;19.874;2023-04-21T12:07:25;10.95;;;3.87;;
62941;SDS011;49042;47.318;19.874;2023-04-21T12:10:27;12.37;;;5.00;;
62941;SDS011;49042;47.318;19.874;2023-04-21T12:13:29;8.52;;;4.03;;
62941;SDS011;49042;47.318;19.874;2023-04-21T12:16:32;13.43;;;4.43;;
62941;SDS011;49042;47.318;19.874;2023-04-21T12:19:40;10.13;;;4.20;;
62941;SDS011;49042;47.318;19.874;2023-04-21T12:22:42;9.20;;;3.83;;
62941;SDS011;49042;47.318;19.874;2023-04-21T12:25:45;10.57;;;4.03;;
62941;SDS011;49042;47.318;19.874;2023-04-21T12:28:47;8.63;;;4.18;;
62941;SDS011;49042;47.318;19.874;2023-04-21T12:31:49;23.20;;;4.12;;
62941;SDS011;49042;47.318;19.874;2023-04-21T12:34:50;6.00;;;3.50;;
62941;SDS011;49042;47.318;19.874;2023-04-21T12:37:52;6.37;;;3.78;;
62941;SDS011;49042;47.318;19.874;2023-04-21T12:40:54;7.93;;;4.10;;
62941;SDS011;49042;47.318;19.874;2023-04-21T12:43:56;8.05;;;4.60;;
62941;SDS011;49042;47.318;19.874;2023-04-21T12:46:57;5.95;;;3.90;;
62941;SDS011;49042;47.318;19.874;2023-04-21T12:49:59;12.52;;;3.83;;
62941;SDS011;49042;47.318;19.874;2023-04-21T12:53:01;7.95;;;3.53;;
62941;SDS011;49042;47.318;19.874;2023-04-21T12:56:03;8.30;;;3.83;;
62941;SDS011;49042;47.318;19.874;2023-04-21T12:59:06;7.57;;;3.80;;
62941;SDS011;49042;47.318;19.874;2023-04-21T13:02:08;5.50;;;3.60;;
62941;SDS011;49042;47.318;19.874;2023-04-21T13:05:09;6.25;;;3.60;;
62941;SDS011;49042;47.318;19.874;2023-04-21T13:08:13;12.32;;;3.65;;
62941;SDS011;49042;47.318;19.874;2023-04-21T13:11:14;11.45;;;4.93;;
62941;SDS011;49042;47.318;19.874;2023-04-21T13:14:16;5.18;;;3.22;;
62941;SDS011;49042;47.318;19.874;2023-04-21T13:17:18;8.85;;;3.67;;
62941;SDS011;49042;47.318;19.874;2023-04-21T13:20:20;5.53;;;3.60;;
62941;SDS011;49042;47.318;19.874;2023-04-21T13:23:22;9.00;;;3.60;;
62941;SDS011;49042;47.318;19.874;2023-04-21T13:26:24;8.18;;;3.55;;
62941;SDS011;49042;47.318;19.874;2023-04-21T13:29:44;5.15;;;3.10;;
62941;SDS011;49042;47.318;19.874;2023-04-21T13:32:48;5.00;;;3.37;;
62941;SDS011;49042;47.318;19.874;2023-04-21T13:35:50;14.87;;;4.15;;
62941;SDS011;49042;47.318;19.874;2023-04-21T13:38:51;10.88;;;3.35;;
62941;SDS011;49042;47.318;19.874;2023-04-21T13:41:56;8.40;;;3.70;;
62941;SDS011;49042;47.318;19.874;2023-04-21T13:44:58;12.43;;;3.60;;
62941;SDS011;49042;47.318;19.874;2023-04-21T13:48:03;7.75;;;3.65;;
62941;SDS011;49042;47.318;19.874;2023-04-21T13:51:05;9.45;;;3.40;;
62941;SDS011;49042;47.318;19.874;2023-04-21T13:54:07;7.57;;;3.33;;
62941;SDS011;49042;47.318;19.874;2023-04-21T13:57:09;8.07;;;3.15;;
62941;SDS011;49042;47.318;19.874;2023-04-21T14:00:11;4.22;;;3.35;;
62941;SDS011;49042;47.318;19.874;2023-04-21T14:03:13;7.07;;;3.40;;
62941;SDS011;49042;47.318;19.874;2023-04-21T14:06:15;11.85;;;3.90;;
62941;SDS011;49042;47.318;19.874;2023-04-21T14:09:17;7.90;;;3.70;;
62941;SDS011;49042;47.318;19.874;2023-04-21T14:12:19;9.88;;;3.70;;
62941;SDS011;49042;47.318;19.874;2023-04-21T14:15:21;5.30;;;3.28;;
62941;SDS011;49042;47.318;19.874;2023-04-21T14:18:22;9.38;;;3.65;;
62941;SDS011;49042;47.318;19.874;2023-04-21T14:21:25;16.55;;;3.60;;
62941;SDS011;49042;47.318;19.874;2023-04-21T14:24:27;9.40;;;3.33;;
62941;SDS011;49042;47.318;19.874;2023-04-21T14:27:30;14.65;;;3.95;;
62941;SDS011;49042;47.318;19.874;2023-04-21T14:30:36;4.62;;;3.15;;
62941;SDS011;49042;47.318;19.874;2023-04-21T14:33:38;6.93;;;3.83;;
62941;SDS011;49042;47.318;19.874;2023-04-21T14:36:41;7.85;;;3.97;;
62941;SDS011;49042;47.318;19.874;2023-04-21T14:39:43;6.65;;;3.72;;
62941;SDS011;49042;47.318;19.874;2023-04-21T14:42:45;8.43;;;3.17;;
62941;SDS011;49042;47.318;19.874;2023-04-21T14:45:47;7.75;;;3.67;;
62941;SDS011;49042;47.318;19.874;2023-04-21T14:48:57;9.25;;;4.35;;
62941;SDS011;49042;47.318;19.874;2023-04-21T14:52:02;6.40;;;3.67;;
62941;SDS011;49042;47.318;19.874;2023-04-21T14:55:04;9.50;;;3.83;;
62941;SDS011;49042;47.318;19.874;2023-04-21T14:58:06;7.28;;;3.90;;
62941;SDS011;49042;47.318;19.874;2023-04-21T15:01:08;21.87;;;4.55;;
62941;SDS011;49042;47.318;19.874;2023-04-21T15:04:10;14.00;;;3.85;;
62941;SDS011;49042;47.318;19.874;2023-04-21T15:07:12;7.80;;;4.62;;
62941;SDS011;49042;47.318;19.874;2023-04-21T15:10:15;12.63;;;4.68;;
62941;SDS011;49042;47.318;19.874;2023-04-21T15:13:17;10.75;;;4.78;;
62941;SDS011;49042;47.318;19.874;2023-04-21T15:16:19;12.07;;;4.78;;
62941;SDS011;49042;47.318;19.874;2023-04-21T15:19:21;10.05;;;4.78;;
62941;SDS011;49042;47.318;19.874;2023-04-21T15:22:25;10.95;;;4.05;;
62941;SDS011;49042;47.318;19.874;2023-04-21T15:25:27;10.90;;;3.75;;
62941;SDS011;49042;47.318;19.874;2023-04-21T15:28:29;8.20;;;4.07;;
62941;SDS011;49042;47.318;19.874;2023-04-21T15:31:30;6.82;;;3.58;;
62941;SDS011;49042;47.318;19.874;2023-04-21T15:34:32;8.10;;;3.95;;
62941;SDS011;49042;47.318;19.874;2023-04-21T15:37:34;8.38;;;3.92;;
62941;SDS011;49042;47.318;19.874;2023-04-21T15:40:36;14.23;;;4.47;;
62941;SDS011;49042;47.318;19.874;2023-04-21T15:43:53;11.20;;;4.35;;
62941;SDS011;49042;47.318;19.874;2023-04-21T15:46:55;6.65;;;3.20;;
62941;SDS011;49042;47.318;19.874;2023-04-21T15:49:57;9.05;;;4.20;;
62941;SDS011;49042;47.318;19.874;2023-04-21T15:52:59;7.12;;;3.92;;
62941;SDS011;49042;47.318;19.874;2023-04-21T15:56:04;9.57;;;4.93;;
62941;SDS011;49042;47.318;19.874;2023-04-21T15:59:06;8.88;;;3.53;;
62941;SDS011;49042;47.318;19.874;2023-04-21T16:02:08;8.35;;;4.00;;
62941;SDS011;49042;47.318;19.874;2023-04-21T16:05:10;16.67;;;4.05;;
62941;SDS011;49042;47.318;19.874;2023-04-21T16:08:11;9.80;;;4.15;;
62941;SDS011;49042;47.318;19.874;2023-04-21T16:11:13;16.25;;;4.82;;
62941;SDS011;49042;47.318;19.874;2023-04-21T16:14:15;11.23;;;4.72;;
62941;SDS011;49042;47.318;19.874;2023-04-21T16:17:17;13.55;;;4.53;;
62941;SDS011;49042;47.318;19.874;2023-04-21T16:20:19;7.70;;;4.40;;
62941;SDS011;49042;47.318;19.874;2023-04-21T16:23:21;16.67;;;4.30;;
62941;SDS011;49042;47.318;19.874;2023-04-21T16:26:24;20.60;;;5.62;;
62941;SDS011;49042;47.318;19.874;2023-04-21T16:29:26;11.45;;;4.65;;
62941;SDS011;49042;47.318;19.874;2023-04-21T16:32:28;14.87;;;4.40;;
62941;SDS011;49042;47.318;19.874;2023-04-21T16:35:31;17.70;;;5.25;;
62941;SDS011;49042;47.318;19.874;2023-04-21T16:38:33;15.88;;;5.07;;
62941;SDS011;49042;47.318;19.874;2023-04-21T16:41:34;12.18;;;6.07;;
62941;SDS011;49042;47.318;19.874;2023-04-21T16:44:36;11.45;;;5.35;;
62941;SDS011;49042;47.318;19.874;2023-04-21T16:47:38;13.98;;;5.12;;
62941;SDS011;49042;47.318;19.874;2023-04-21T16:50:42;13.43;;;5.85;;
62941;SDS011;49042;47.318;19.874;2023-04-21T16:53:45;8.43;;;5.45;;
62941;SDS011;49042;47.318;19.874;2023-04-21T16:56:48;16.12;;;7.30;;
62941;SDS011;49042;47.318;19.874;2023-04-21T16:59:50;14.75;;;8.02;;
62941;SDS011;49042;47.318;19.874;2023-04-21T17:02:52;18.98;;;8.57;;
62941;SDS011;49042;47.318;19.874;2023-04-21T17:05:54;22.75;;;8.00;;
62941;SDS011;49042;47.318;19.874;2023-04-21T17:08:56;22.87;;;7.55;;
62941;SDS011;49042;47.318;19.874;2023-04-21T17:12:00;12.88;;;6.78;;
62941;SDS011;49042;47.318;19.874;2023-04-21T17:15:02;19.00;;;6.47;;
62941;SDS011;49042;47.318;19.874;2023-04-21T17:18:05;13.05;;;8.07;;
62941;SDS011;49042;47.318;19.874;2023-04-21T17:21:07;24.67;;;8.10;;
62941;SDS011;49042;47.318;19.874;2023-04-21T17:24:09;27.98;;;8.18;;
62941;SDS011;49042;47.318;19.874;2023-04-21T17:27:11;19.02;;;8.65;;
62941;SDS011;49042;47.318;19.874;2023-04-21T17:30:12;22.50;;;9.40;;
62941;SDS011;49042;47.318;19.874;2023-04-21T17:33:14;17.55;;;8.93;;
62941;SDS011;49042;47.318;19.874;2023-04-21T17:36:17;19.17;;;9.02;;
62941;SDS011;49042;47.318;19.874;2023-04-21T17:39:19;33.63;;;9.85;;
62941;SDS011;49042;47.318;19.874;2023-04-21T17:42:21;31.17;;;9.40;;
62941;SDS011;49042;47.318;19.874;2023-04-21T17:45:23;34.50;;;9.93;;
62941;SDS011;49042;47.318;19.874;2023-04-21T17:48:25;45.95;;;10.27;;
62941;SDS011;49042;47.318;19.874;2023-04-21T17:51:27;17.77;;;9.15;;
62941;SDS011;49042;47.318;19.874;2023-04-21T17:54:29;33.67;;;10.00;;
62941;SDS011;49042;47.318;19.874;2023-04-21T17:57:31;27.15;;;10.48;;
62941;SDS011;49042;47.318;19.874;2023-04-21T18:00:33;33.92;;;14.23;;
62941;SDS011;49042;47.318;19.874;2023-04-21T18:03:35;25.83;;;12.55;;
62941;SDS011;49042;47.318;19.874;2023-04-21T18:06:37;19.65;;;10.98;;